createdAt,value
2022-10-13T00:01:10.856Z,7.00
2022-10-13T00:03:42.301Z,7.00
2022-10-13T00:06:11.008Z,7.00
2022-10-13T00:08:38.928Z,6.90
2022-10-13T00:11:22.001Z,7.00
2022-10-13T00:13:50.040Z,7.00
2022-10-13T00:16:20.654Z,7.00
2022-10-13T00:18:48.469Z,7.10
2022-10-13T00:21:21.333Z,7.10
2022-10-13T00:23:50.024Z,7.10
2022-10-13T00:26:17.735Z,7.20
2022-10-13T00:28:47.358Z,7.20
2022-10-13T00:31:23.277Z,7.20
2022-10-13T00:33:50.349Z,7.30
2022-10-13T00:36:17.183Z,7.30
2022-10-13T00:38:43.999Z,7.30
2022-10-13T00:41:11.106Z,7.30
2022-10-13T00:44:01.076Z,7.30
2022-10-13T00:46:31.499Z,7.40
2022-10-13T00:49:08.399Z,7.40
2022-10-13T00:51:41.469Z,7.40
2022-10-13T00:54:11.827Z,7.40
2022-10-13T00:56:39.999Z,7.40
2022-10-13T00:59:23.044Z,7.50
2022-10-13T01:01:51.801Z,7.60
2022-10-13T01:04:22.989Z,7.60
2022-10-13T01:06:50.204Z,7.60
2022-10-13T01:09:16.992Z,7.60
2022-10-13T01:12:04.758Z,7.70
2022-10-13T01:14:52.842Z,7.80
2022-10-13T01:18:09.207Z,7.90
2022-10-13T01:20:48.384Z,8.00
2022-10-13T01:23:54.956Z,8.10
2022-10-13T01:26:49.527Z,8.10
2022-10-13T01:29:47.360Z,8.10
2022-10-13T01:32:38.605Z,8.00
2022-10-13T01:35:50.155Z,7.90
2022-10-13T01:38:40.118Z,7.90
2022-10-13T01:41:11.847Z,7.80
2022-10-13T01:43:47.193Z,7.80
2022-10-13T01:46:23.030Z,7.70
2022-10-13T01:48:54.208Z,7.70
2022-10-13T01:51:23.876Z,7.60
2022-10-13T01:53:51.445Z,7.70
2022-10-13T01:56:18.771Z,7.60
2022-10-13T01:58:46.596Z,7.60
2022-10-13T02:01:47.204Z,7.60
2022-10-13T02:04:31.992Z,7.60
2022-10-13T02:07:15.176Z,7.60
2022-10-13T02:09:57.710Z,7.50
2022-10-13T02:12:49.849Z,7.50
2022-10-13T02:15:22.658Z,7.50
2022-10-13T02:17:51.841Z,7.50
2022-10-13T02:20:20.918Z,7.40
2022-10-13T02:22:55.808Z,7.40
2022-10-13T02:25:23.012Z,7.40
2022-10-13T02:27:49.962Z,7.40
2022-10-13T02:30:23.971Z,7.40
2022-10-13T02:32:51.179Z,7.40
2022-10-13T02:35:18.038Z,7.30
2022-10-13T02:37:44.947Z,7.20
2022-10-13T02:40:12.463Z,7.20
2022-10-13T02:42:39.368Z,7.20
2022-10-13T02:45:07.463Z,7.20
2022-10-13T02:47:34.333Z,7.10
2022-10-13T02:50:01.301Z,7.10
2022-10-13T02:52:28.256Z,7.10
2022-10-13T02:54:55.032Z,7.10
2022-10-13T02:57:22.511Z,7.00
2022-10-13T02:59:49.581Z,7.00
2022-10-13T03:02:17.757Z,6.90
2022-10-13T03:04:45.337Z,6.90
2022-10-13T03:07:12.217Z,6.90
2022-10-13T03:09:39.025Z,6.90
2022-10-13T03:12:06.173Z,6.90
2022-10-13T03:14:32.946Z,6.90
2022-10-13T03:17:00.902Z,6.80
2022-10-13T03:19:27.732Z,6.80
2022-10-13T03:21:54.886Z,6.70
2022-10-13T03:24:21.714Z,6.70
2022-10-13T03:26:48.502Z,6.50
2022-10-13T03:29:16.882Z,6.50
2022-10-13T03:31:44.305Z,6.50
2022-10-13T03:34:12.804Z,6.60
2022-10-13T03:36:39.838Z,6.60
2022-10-13T03:39:06.737Z,6.60
2022-10-13T03:41:33.809Z,6.70
2022-10-13T03:44:00.994Z,6.70
2022-10-13T03:46:29.886Z,6.80
2022-10-13T03:48:56.693Z,7.00
2022-10-13T03:51:24.684Z,7.00
2022-10-13T03:53:52.862Z,7.00
2022-10-13T03:56:26.116Z,7.10
2022-10-13T03:58:58.719Z,7.10
2022-10-13T04:01:29.366Z,7.10
2022-10-13T04:03:57.412Z,7.20
2022-10-13T04:06:26.416Z,7.20
2022-10-13T04:08:53.609Z,7.30
2022-10-13T04:11:22.013Z,7.30
2022-10-13T04:13:48.831Z,7.20
2022-10-13T04:16:19.483Z,7.10
2022-10-13T04:18:54.672Z,7.00
2022-10-13T04:21:22.349Z,7.10
2022-10-13T04:23:49.339Z,7.10
2022-10-13T04:26:20.329Z,7.10
2022-10-13T04:28:49.231Z,7.20
2022-10-13T04:31:16.517Z,7.20
2022-10-13T04:33:45.095Z,7.10
2022-10-13T04:36:14.301Z,7.00
2022-10-13T04:38:42.593Z,6.90
2022-10-13T04:41:10.889Z,6.90
2022-10-13T04:43:38.128Z,7.00
2022-10-13T04:46:18.872Z,7.00
2022-10-13T04:48:47.229Z,7.10
2022-10-13T04:51:17.779Z,7.20
2022-10-13T04:53:44.653Z,7.20
2022-10-13T04:56:20.553Z,7.30
2022-10-13T04:58:47.431Z,7.30
2022-10-13T05:01:22.540Z,7.40
2022-10-13T05:04:00.052Z,7.40
2022-10-13T05:06:34.428Z,7.40
2022-10-13T05:09:01.733Z,7.40
2022-10-13T05:11:29.600Z,7.50
2022-10-13T05:13:57.357Z,7.50
2022-10-13T05:16:25.347Z,7.50
2022-10-13T05:18:54.605Z,7.60
2022-10-13T05:21:28.243Z,7.60
2022-10-13T05:23:56.894Z,7.60
2022-10-13T05:26:32.052Z,7.60
2022-10-13T05:29:00.541Z,7.60
2022-10-13T05:31:29.895Z,7.50
2022-10-13T05:33:57.329Z,7.50
2022-10-13T05:36:30.852Z,7.50
2022-10-13T05:39:01.198Z,7.50
2022-10-13T05:41:29.245Z,7.60
2022-10-13T05:44:03.208Z,7.70
2022-10-13T05:46:29.987Z,7.70
2022-10-13T05:48:56.825Z,7.80
2022-10-13T05:51:30.585Z,7.80
2022-10-13T05:54:12.342Z,7.90
2022-10-13T05:56:47.860Z,8.00
2022-10-13T05:59:18.296Z,8.20
2022-10-13T06:01:46.181Z,8.10
2022-10-13T06:04:22.376Z,8.20
2022-10-13T06:06:49.876Z,8.20
2022-10-13T06:09:17.488Z,8.30
2022-10-13T06:11:44.327Z,8.30
2022-10-13T06:14:11.092Z,8.20
2022-10-13T06:16:37.939Z,8.30
2022-10-13T06:19:06.089Z,8.30
2022-10-13T06:21:35.470Z,8.40
2022-10-13T06:24:02.806Z,8.40
2022-10-13T06:26:29.638Z,8.50
2022-10-13T06:28:59.493Z,8.60
2022-10-13T06:31:27.190Z,8.70
2022-10-13T06:33:54.119Z,8.80
2022-10-13T06:36:20.945Z,8.80
2022-10-13T06:38:47.753Z,8.80
2022-10-13T06:41:14.821Z,8.80
2022-10-13T06:43:42.062Z,8.70
2022-10-13T06:46:09.839Z,8.90
2022-10-13T06:48:36.745Z,9.00
2022-10-13T06:51:06.584Z,9.00
2022-10-13T06:53:33.836Z,9.10
2022-10-13T06:56:02.271Z,9.20
2022-10-13T06:58:29.096Z,9.20
2022-10-13T07:00:56.168Z,9.30
2022-10-13T07:03:24.032Z,9.30
2022-10-13T07:05:50.893Z,9.30
2022-10-13T07:08:17.712Z,9.40
2022-10-13T07:10:44.475Z,9.40
2022-10-13T07:13:11.450Z,9.30
2022-10-13T07:15:40.085Z,9.10
2022-10-13T07:18:07.459Z,9.20
2022-10-13T07:20:34.707Z,9.40
2022-10-13T07:23:01.840Z,9.60
2022-10-13T07:25:28.745Z,9.70
2022-10-13T07:27:55.561Z,9.70
2022-10-13T07:30:22.739Z,9.70
2022-10-13T07:32:49.572Z,9.80
2022-10-13T07:35:16.513Z,10.00
2022-10-13T07:37:43.292Z,10.10
2022-10-13T07:40:10.896Z,10.20
2022-10-13T07:42:37.677Z,10.30
2022-10-13T07:45:05.171Z,10.30
2022-10-13T07:47:31.985Z,10.40
2022-10-13T07:49:58.768Z,10.40
2022-10-13T07:52:25.576Z,10.30
2022-10-13T07:54:52.374Z,10.40
2022-10-13T07:57:19.149Z,10.40
2022-10-13T07:59:46.129Z,10.60
2022-10-13T08:02:13.029Z,10.70
2022-10-13T08:04:39.872Z,10.80
2022-10-13T08:07:07.043Z,10.90
2022-10-13T08:09:34.181Z,10.90
2022-10-13T08:12:02.035Z,10.90
2022-10-13T08:14:30.403Z,11.10
2022-10-13T08:16:57.961Z,11.30
2022-10-13T08:19:26.579Z,11.50
2022-10-13T08:21:58.818Z,11.60
2022-10-13T08:24:27.461Z,11.70
2022-10-13T08:26:55.312Z,11.80
2022-10-13T08:29:23.386Z,11.90
2022-10-13T08:31:52.841Z,12.00
2022-10-13T08:34:21.457Z,12.00
2022-10-13T08:36:48.803Z,12.10
2022-10-13T08:39:15.770Z,12.20
2022-10-13T08:41:44.528Z,12.20
2022-10-13T08:45:10.818Z,12.20
2022-10-13T08:47:43.792Z,12.30
2022-10-13T08:50:16.048Z,12.40
2022-10-13T08:53:07.453Z,12.40
2022-10-13T08:55:42.126Z,12.40
2022-10-13T08:58:31.438Z,12.50
2022-10-13T09:01:19.782Z,12.70
2022-10-13T09:04:18.749Z,12.80
2022-10-13T09:07:03.456Z,13.10
2022-10-13T09:09:30.573Z,13.40
2022-10-13T09:11:59.422Z,13.60
2022-10-13T09:14:34.563Z,13.70
2022-10-13T09:17:30.400Z,13.80
2022-10-13T09:20:03.822Z,14.10
2022-10-13T09:22:39.510Z,14.10
2022-10-13T09:25:18.552Z,13.80
2022-10-13T09:27:48.034Z,13.80
2022-10-13T09:30:38.808Z,13.90
2022-10-13T09:33:08.928Z,14.10
2022-10-13T09:35:37.757Z,14.20
2022-10-13T09:38:14.740Z,14.40
2022-10-13T09:43:28.128Z,14.40
2022-10-13T09:45:55.561Z,14.40
2022-10-13T09:48:27.981Z,14.50
2022-10-13T09:50:57.293Z,14.60
2022-10-13T09:53:35.321Z,14.70
2022-10-13T09:56:19.579Z,14.80
2022-10-13T09:59:01.178Z,14.90
2022-10-13T10:01:35.405Z,15.00
2022-10-13T10:04:07.525Z,15.10
2022-10-13T10:06:34.886Z,14.90
2022-10-13T10:09:22.649Z,15.10
2022-10-13T10:11:53.376Z,15.20
2022-10-13T10:14:39.281Z,15.40
2022-10-13T10:17:32.568Z,15.50
2022-10-13T10:20:44.993Z,15.60
2022-10-13T10:23:22.966Z,15.70
2022-10-13T10:25:59.243Z,15.70
2022-10-13T10:28:50.566Z,16.00
2022-10-13T10:31:42.412Z,16.20
2022-10-13T10:34:52.874Z,16.10
2022-10-13T10:37:33.115Z,15.80
2022-10-13T10:40:19.006Z,16.10
2022-10-13T10:43:06.784Z,16.10
2022-10-13T10:45:40.580Z,16.40
2022-10-13T10:48:18.781Z,16.70
2022-10-13T10:50:46.649Z,17.00
2022-10-13T10:53:57.475Z,17.10
2022-10-13T10:56:49.078Z,17.20
2022-10-13T10:59:49.973Z,17.10
2022-10-13T11:02:54.899Z,17.10
2022-10-13T11:05:22.088Z,17.30
2022-10-13T11:07:51.449Z,18.00
2022-10-13T11:10:21.716Z,18.70
2022-10-13T11:12:51.254Z,18.40
2022-10-13T11:15:28.800Z,18.40
2022-10-13T11:17:55.661Z,18.50
2022-10-13T11:20:22.373Z,18.50
2022-10-13T11:23:00.695Z,19.20
2022-10-13T11:25:48.806Z,20.10
2022-10-13T11:28:21.927Z,20.50
2022-10-13T11:31:05.498Z,20.80
2022-10-13T11:33:38.993Z,20.60
2022-10-13T11:36:55.583Z,20.40
2022-10-13T11:39:51.889Z,20.30
2022-10-13T11:42:59.253Z,20.10
2022-10-13T11:45:49.045Z,19.80
2022-10-13T11:48:30.375Z,19.80
2022-10-13T11:51:30.356Z,19.40
2022-10-13T11:54:05.916Z,18.90
2022-10-13T11:56:53.265Z,18.70
2022-10-13T11:59:35.137Z,18.70
2022-10-13T12:02:10.811Z,18.50
2022-10-13T12:04:46.285Z,18.70
2022-10-13T12:07:16.026Z,18.90
2022-10-13T12:09:54.164Z,19.50
2022-10-13T12:12:23.085Z,19.90
2022-10-13T12:14:58.720Z,19.90
2022-10-13T12:17:33.253Z,19.90
2022-10-13T12:20:21.959Z,20.30
2022-10-13T12:22:50.397Z,20.40
2022-10-13T12:25:20.522Z,20.30
2022-10-13T12:27:51.021Z,19.70
2022-10-13T12:30:24.644Z,19.40
2022-10-13T12:32:57.513Z,19.60
2022-10-13T12:35:33.627Z,19.70
2022-10-13T12:38:23.441Z,19.10
2022-10-13T12:40:53.447Z,18.80
2022-10-13T12:43:27.520Z,18.50
2022-10-13T12:45:54.579Z,18.70
2022-10-13T12:48:36.897Z,18.70
2022-10-13T12:51:34.738Z,19.00
2022-10-13T12:54:20.483Z,19.40
2022-10-13T12:56:48.732Z,18.80
2022-10-13T12:59:19.572Z,18.90
2022-10-13T13:01:57.540Z,18.90
2022-10-13T13:04:24.213Z,19.20
2022-10-13T13:07:02.043Z,19.10
2022-10-13T13:09:38.733Z,19.10
2022-10-13T13:12:11.108Z,18.60
2022-10-13T13:14:43.538Z,18.50
2022-10-13T13:20:26.726Z,18.90
2022-10-13T13:22:54.690Z,18.80
2022-10-13T13:25:21.920Z,18.90
2022-10-13T13:27:49.126Z,18.70
2022-10-13T13:30:19.788Z,18.70
2022-10-13T13:32:46.915Z,18.80
2022-10-13T13:35:13.881Z,19.10
2022-10-13T13:37:45.376Z,19.10
2022-10-13T13:40:19.412Z,19.00
2022-10-13T13:42:46.393Z,19.10
2022-10-13T13:45:19.712Z,19.30
2022-10-13T13:47:47.334Z,19.50
2022-10-13T13:50:20.803Z,19.40
2022-10-13T13:52:48.066Z,19.50
2022-10-13T13:55:15.271Z,19.40
2022-10-13T13:57:43.456Z,19.20
2022-10-13T14:00:15.721Z,19.20
2022-10-13T14:02:44.201Z,18.90
2022-10-13T14:05:12.297Z,18.80
2022-10-13T14:07:40.267Z,18.60
2022-10-13T14:10:09.379Z,18.30
2022-10-13T14:12:36.344Z,18.30
2022-10-13T14:15:03.605Z,18.20
2022-10-13T14:17:30.403Z,18.20
2022-10-13T14:19:57.194Z,18.10
2022-10-13T14:22:24.246Z,18.00
2022-10-13T14:24:51.334Z,17.60
2022-10-13T14:27:18.120Z,17.50
2022-10-13T14:29:45.010Z,17.60
2022-10-13T14:32:12.091Z,17.60
2022-10-13T14:34:38.868Z,17.50
2022-10-13T14:37:05.679Z,17.40
2022-10-13T14:39:32.504Z,17.40
2022-10-13T14:41:59.286Z,17.40
2022-10-13T14:44:26.047Z,17.40
2022-10-13T14:46:52.857Z,17.50
2022-10-13T14:49:19.869Z,17.50
2022-10-13T14:51:46.704Z,17.40
2022-10-13T14:54:13.480Z,17.10
2022-10-13T14:56:40.361Z,17.10
2022-10-13T14:59:07.757Z,17.10
2022-10-13T15:01:34.811Z,17.20
2022-10-13T15:04:02.837Z,17.20
2022-10-13T15:06:29.818Z,17.30
2022-10-13T15:08:57.277Z,17.30
2022-10-13T15:11:25.600Z,17.20
2022-10-13T15:13:52.758Z,17.20
2022-10-13T15:16:28.665Z,17.10
2022-10-13T15:18:56.574Z,17.10
2022-10-13T15:21:24.240Z,17.00
2022-10-13T15:23:51.465Z,17.00
2022-10-13T15:26:19.819Z,17.00
2022-10-13T15:28:50.895Z,17.00
2022-10-13T15:31:19.996Z,17.00
2022-10-13T15:33:52.390Z,17.10
2022-10-13T15:36:21.064Z,17.10
2022-10-13T15:38:48.348Z,17.10
2022-10-13T15:41:16.110Z,17.10
2022-10-13T15:43:43.033Z,16.90
2022-10-13T15:46:21.591Z,16.70
2022-10-13T15:48:53.343Z,16.60
2022-10-13T15:51:23.970Z,16.40
2022-10-13T15:53:50.822Z,16.20
2022-10-13T15:56:17.637Z,16.20
2022-10-13T15:58:45.441Z,16.10
2022-10-13T16:01:13.705Z,16.00
2022-10-13T16:03:40.932Z,15.90
2022-10-13T16:06:10.515Z,15.70
2022-10-13T16:08:43.902Z,15.70
2022-10-13T16:11:13.526Z,15.60
2022-10-13T16:13:41.729Z,15.50
2022-10-13T16:16:08.692Z,15.40
2022-10-13T16:18:37.689Z,15.20
2022-10-13T16:21:18.755Z,15.10
2022-10-13T16:23:47.426Z,15.00
2022-10-13T16:26:17.587Z,14.90
2022-10-13T16:28:45.702Z,14.80
2022-10-13T16:31:16.057Z,14.70
2022-10-13T16:33:45.507Z,14.50
2022-10-13T16:36:18.527Z,14.50
2022-10-13T16:38:47.207Z,14.40
2022-10-13T16:41:17.125Z,14.30
2022-10-13T16:43:45.495Z,14.20
2022-10-13T16:46:15.364Z,14.20
2022-10-13T16:48:43.404Z,14.10
2022-10-13T16:51:23.841Z,14.10
2022-10-13T16:54:02.809Z,14.10
2022-10-13T16:56:31.067Z,14.20
2022-10-13T16:59:01.536Z,14.20
2022-10-13T17:01:30.005Z,14.20
2022-10-13T17:03:57.375Z,14.20
2022-10-13T17:06:27.113Z,14.20
2022-10-13T17:08:54.308Z,14.20
2022-10-13T17:11:25.326Z,14.20
2022-10-13T17:13:52.492Z,14.20
2022-10-13T17:16:20.187Z,14.10
2022-10-13T17:18:46.972Z,14.10
2022-10-13T17:21:16.694Z,14.10
2022-10-13T17:23:48.347Z,14.10
2022-10-13T17:26:18.230Z,14.00
2022-10-13T17:28:45.685Z,14.00
2022-10-13T17:31:17.857Z,13.90
2022-10-13T17:33:46.004Z,13.80
2022-10-13T17:36:19.417Z,13.80
2022-10-13T17:38:48.158Z,13.70
2022-10-13T17:41:15.507Z,13.70
2022-10-13T17:43:42.791Z,13.70
2022-10-13T17:46:34.423Z,13.60
2022-10-13T17:48:58.319Z,13.60
2022-10-13T17:51:25.347Z,13.60
2022-10-13T17:53:52.820Z,13.50
2022-10-13T17:56:25.019Z,13.50
2022-10-13T17:58:52.598Z,13.50
2022-10-13T18:01:29.626Z,13.40
2022-10-13T18:04:02.679Z,13.40
2022-10-13T18:06:45.741Z,13.40
2022-10-13T18:09:19.394Z,13.30
2022-10-13T18:11:50.766Z,13.20
2022-10-13T18:14:24.088Z,13.20
2022-10-13T18:16:51.715Z,13.00
2022-10-13T18:19:18.585Z,13.00
2022-10-13T18:21:45.417Z,13.00
2022-10-13T18:24:12.435Z,12.90
2022-10-13T18:26:39.400Z,12.90
2022-10-13T18:29:08.373Z,12.70
2022-10-13T18:31:38.462Z,12.90
2022-10-13T18:34:10.516Z,12.80
2022-10-13T18:36:43.445Z,12.70
2022-10-13T18:39:19.188Z,12.70
2022-10-13T18:41:46.965Z,12.70
2022-10-13T18:44:14.502Z,12.70
2022-10-13T18:46:41.726Z,12.60
2022-10-13T18:49:14.722Z,12.60
2022-10-13T18:51:42.094Z,12.50
2022-10-13T18:54:09.261Z,12.50
2022-10-13T18:56:36.930Z,12.30
2022-10-13T18:59:06.371Z,12.20
2022-10-13T19:01:35.340Z,12.10
2022-10-13T19:04:02.302Z,12.10
2022-10-13T19:06:31.943Z,12.00
2022-10-13T19:09:02.299Z,12.00
2022-10-13T19:11:30.279Z,11.80
2022-10-13T19:13:59.604Z,11.70
2022-10-13T19:16:30.103Z,11.80
2022-10-13T19:18:57.296Z,11.70
2022-10-13T19:21:25.117Z,11.70
2022-10-13T19:23:52.360Z,11.60
2022-10-13T19:26:28.266Z,11.60
2022-10-13T19:28:57.951Z,11.50
2022-10-13T19:31:28.217Z,11.50
2022-10-13T19:33:55.861Z,11.60
2022-10-13T19:36:34.924Z,11.70
2022-10-13T19:39:05.542Z,11.70
2022-10-13T19:41:33.023Z,11.80
2022-10-13T19:44:00.700Z,11.80
2022-10-13T19:46:27.604Z,11.80
2022-10-13T19:48:54.661Z,11.80
2022-10-13T19:51:21.443Z,11.90
2022-10-13T19:53:48.977Z,11.80
2022-10-13T19:56:31.860Z,11.90
2022-10-13T19:58:59.714Z,11.80
2022-10-13T20:01:27.029Z,11.80
2022-10-13T20:03:54.586Z,11.80
2022-10-13T20:06:22.692Z,11.80
2022-10-13T20:08:49.732Z,11.80
2022-10-13T20:11:23.696Z,11.80
2022-10-13T20:13:52.920Z,11.90
2022-10-13T20:16:23.281Z,11.90
2022-10-13T20:18:54.032Z,11.90
2022-10-13T20:21:22.576Z,11.90
2022-10-13T20:23:49.678Z,11.90
2022-10-13T20:26:17.373Z,11.90
2022-10-13T20:28:46.507Z,11.90
2022-10-13T20:31:15.511Z,11.90
2022-10-13T20:33:43.423Z,11.80
2022-10-13T20:36:16.742Z,11.70
2022-10-13T20:38:43.550Z,11.80
2022-10-13T20:41:19.679Z,11.70
2022-10-13T20:43:48.382Z,11.70
2022-10-13T20:46:17.211Z,11.60
2022-10-13T20:49:09.473Z,11.60
2022-10-13T20:51:31.597Z,11.60
2022-10-13T20:53:58.440Z,11.50
2022-10-13T20:56:26.478Z,11.60
2022-10-13T20:58:54.207Z,11.40
2022-10-13T21:01:22.941Z,11.50
2022-10-13T21:03:54.309Z,11.40
2022-10-13T21:06:23.442Z,11.40
2022-10-13T21:08:50.636Z,11.40
2022-10-13T21:11:20.259Z,11.30
2022-10-13T21:13:48.091Z,11.40
2022-10-13T21:16:19.405Z,11.40
2022-10-13T21:18:51.013Z,11.40
2022-10-13T21:21:22.080Z,11.40
2022-10-13T21:23:58.168Z,11.40
2022-10-13T21:26:27.962Z,11.50
2022-10-13T21:28:55.143Z,11.50
2022-10-13T21:31:23.734Z,11.50
2022-10-13T21:33:50.947Z,11.50
2022-10-13T21:36:30.007Z,11.60
2022-10-13T21:39:05.066Z,11.60
2022-10-13T21:41:32.105Z,11.60
2022-10-13T21:43:59.213Z,11.60
2022-10-13T21:46:30.098Z,11.50
2022-10-13T21:49:00.239Z,11.60
2022-10-13T21:51:29.981Z,11.60
2022-10-13T21:54:01.993Z,11.70
2022-10-13T21:56:30.268Z,11.70
2022-10-13T21:58:57.142Z,11.60
2022-10-13T22:01:24.810Z,11.70
2022-10-13T22:03:57.869Z,11.70
2022-10-13T22:06:25.527Z,11.70
2022-10-13T22:08:55.617Z,11.80
2022-10-13T22:11:26.363Z,11.90
2022-10-13T22:13:53.496Z,12.00
2022-10-13T22:16:24.429Z,12.00
2022-10-13T22:18:56.425Z,11.90
2022-10-13T22:21:30.216Z,11.90
2022-10-13T22:24:00.435Z,12.00
2022-10-13T22:26:30.451Z,11.90
2022-10-13T22:28:59.636Z,11.90
2022-10-13T22:31:26.984Z,11.80
2022-10-13T22:33:54.907Z,11.80
2022-10-13T22:36:24.284Z,11.80
2022-10-13T22:38:55.008Z,11.80
2022-10-13T22:41:21.915Z,11.80
2022-10-13T22:43:54.795Z,11.60
2022-10-13T22:46:28.208Z,11.50
2022-10-13T22:48:56.654Z,11.40
2022-10-13T22:51:25.638Z,11.40
2022-10-13T22:53:52.501Z,11.40
2022-10-13T22:56:23.494Z,11.50
2022-10-13T22:58:52.742Z,11.50
2022-10-13T23:01:21.173Z,11.50
2022-10-13T23:03:50.456Z,11.70
2022-10-13T23:06:21.102Z,11.60
2022-10-13T23:08:48.594Z,11.80
2022-10-13T23:11:16.997Z,11.90
2022-10-13T23:13:44.016Z,12.00
2022-10-13T23:16:16.191Z,12.10
2022-10-13T23:18:43.444Z,12.20
2022-10-13T23:21:14.467Z,12.40
2022-10-13T23:23:41.349Z,12.40
2022-10-13T23:26:15.250Z,12.50
2022-10-13T23:28:42.722Z,12.50
2022-10-13T23:31:15.448Z,12.60
2022-10-13T23:33:42.701Z,12.60
2022-10-13T23:36:16.410Z,12.60
2022-10-13T23:38:43.207Z,12.50
2022-10-13T23:41:13.702Z,12.50
2022-10-13T23:43:41.233Z,12.40
2022-10-13T23:46:10.512Z,12.40
2022-10-13T23:48:38.339Z,12.40
2022-10-13T23:51:15.533Z,12.30
2022-10-13T23:53:42.982Z,12.50
2022-10-13T23:56:11.268Z,12.50
2022-10-13T23:58:40.807Z,12.30
